• Join FlightAware (Why Join?)
  • Login
  • US Flag 
01:14AM EDT


 

Airport Tracker/Info


-or-


 

Live Flight TrackerFlight Track Log ✈ SKW7363 ✈ 23-Oct-2013 ✈ KABR - KMSP

Flight Track Log - Related Links

Times and Time Zones

All times are in EDT time to prevent confusion due to time zone crossing. See the SKW7363 flight status page for this flight to view local times or setup timezone preferences in your user account.

Time Position Orientation Groundspeed Altitude Reporting Facility
EDT Latitude Longitude Course Direction KTS MPH feet Rate Location/Type
02:15PM 45.3888 -97.7404 113° Southeast  Level Estimated
02:16PM 45.3762 -97.6042 112° Southeast  Level Estimated
02:16PM 45.4250 -98.3231 140° Southeast 231 266 6,900  Level Minneapolis Center
02:17PM 45.3171 -96.9859 113° Southeast  Level Estimated
02:17PM 45.3886 -98.2150 116° Southeast 276 318 9,200  Level Minneapolis Center
02:18PM 45.0755 -96.4666 123° Southeast  Level FlightAware Approximate
02:18PM 45.3553 -98.0983 112° Southeast 309 356 11,600  Level Minneapolis Center
02:19PM 45.0458 -95.8471 76° East  Level Estimated
02:19PM 45.3181 -97.9669 112° Southeast 335 386 14,100  Level Minneapolis Center
02:20PM 45.0127 -95.2284 72° East  Level Estimated
02:20PM 45.2817 -97.8397 112° Southeast 347 399 16,600  Level Minneapolis Center
02:21PM 45.2436 -97.7067 112° Southeast 360 414 18,000 1,320 Climbing Minneapolis Center
02:22PM 45.2022 -97.5644 112° Southeast 385 443 19,400 1,560 Climbing Minneapolis Center
02:23PM 45.1611 -97.4172 112° Southeast 400 460 21,300 1,800 Climbing Minneapolis Center
02:24PM 45.1097 -97.2397 112° Southeast 406 467 23,100 1,440 Climbing Minneapolis Center
02:25PM 45.0628 -97.0861 113° Southeast 420 483 24,300 1,080 Climbing Minneapolis Center
02:26PM 45.0169 -96.9292 112° Southeast 429 494 25,400 1,020 Climbing Minneapolis Center
02:27PM 44.9619 -96.7714 116° Southeast 444 511 26,500 720 Climbing Minneapolis Center
02:28PM 44.8408 -96.7000 157° South 470 541 27,000 240 Climbing Minneapolis Center
02:29PM 44.7167 -96.6317 159° South 478 550 27,000  Level Minneapolis Center
02:30PM 44.5681 -96.5497 159° South 478 550 27,000  Level Minneapolis Center
02:32PM 44.4467 -96.4806 158° South 475 547 27,000  Level Minneapolis Center
02:33PM 44.3244 -96.4111 158° South 478 550 27,000  Level Minneapolis Center
02:34PM 44.2044 -96.3428 158° South 475 547 27,000  Level Minneapolis Center
02:35PM 44.0636 -96.2600 157° South 476 548 27,000 -180 Level Minneapolis Center
02:36PM 43.9869 -96.1203 127° Southeast 481 554 26,700 -360 Descending Minneapolis Center
02:37PM 44.0147 -95.9739 75° East 413 475 26,300 -480 Descending Minneapolis Center
02:38PM 44.0794 -95.8600 52° Northeast 382 440 25,800 -720 Descending Minneapolis Center
02:39PM 44.1608 -95.7128 52° Northeast 401 461 24,800 -900 Descending Minneapolis Center
02:40PM 44.2281 -95.5869 53° Northeast 408 470 24,000 -420 Descending Minneapolis Center
02:41PM 44.2922 -95.4678 53° Northeast 395 455 24,000  Level Minneapolis Center
02:42PM 44.3553 -95.3478 54° Northeast 387 445 24,000  Level Minneapolis Center
02:43PM 44.4208 -95.2244 53° Northeast 394 453 24,000  Level Minneapolis Center
02:44PM 44.4858 -95.0622 61° Northeast 401 461 24,000  Level Minneapolis Center
02:45PM 44.5203 -94.9083 73° East 414 476 24,000 -1,020 Level Minneapolis Center
02:46PM 44.5561 -94.7589 71° East 409 471 21,900 -2,280 Descending Minneapolis Center
02:47PM 44.5939 -94.6008 71° East 398 458 19,300 -2,400 Descending Minneapolis Center
02:48PM 44.6250 -94.4642 72° East 373 429 17,000 -2,340 Descending Minneapolis Center
02:49PM 44.6547 -94.3325 72° East 356 410 14,500 -2,400 Descending Minneapolis Center
02:50PM 44.6839 -94.2036 72° East 343 395 12,000 -1,740 Descending Minneapolis Center
02:51PM 44.7117 -94.0797 72° East 333 383 11,000 -540 Descending Minneapolis Center
02:52PM 44.7394 -93.9558 72° East 336 387 11,000  Level Minneapolis Center
02:53PM 44.7717 -93.8083 73° East 329 379 11,000  Level Minneapolis Center
02:54PM 44.7992 -93.6853 72° East 330 380 11,000 -60 Level Minneapolis Center
02:55PM 44.8264 -93.5608 73° East 333 383 10,900 -660 Descending Minneapolis Center
02:56PM 44.8511 -93.4486 73° East 304 350 9,700 -1,380 Descending Minneapolis Center
02:57PM 44.8372 -93.3442 101° East 294 338 8,100 -1,380 Descending Minneapolis Center
02:58PM 44.7933 -93.2467 122° Southeast 292 336 6,900 -1,500 Descending Minneapolis Center
02:59PM 44.7586 -93.1478 116° Southeast 275 316 5,100 -1,860 Descending Minneapolis Center
03:01PM 44.7881 -93.0681 62° Northeast 252 290 3,100 -1,200 Descending Minneapolis Center
03:02PM 44.8397 -93.0983 337° Northwest 172 198 2,600 -660 Descending Minneapolis Center
03:03PM 44.8583 -93.1417 301° West 133 153 1,800 -780 Descending Minneapolis Center
03:04PM 44.8772 -93.1839 302° West 129 148 1,100 -720 Descending Minneapolis Center